sensor_id;sensor_type;location;lat;lon;timestamp;pressure;altitude;pressure_sealevel;temperature;humidity
48926;BME280;39838;59.938;30.642;2023-03-14T00:01:11;98225.91;;;-2.71;81.48
48926;BME280;39838;59.938;30.642;2023-03-14T00:03:39;98223.41;;;-2.69;81.85
48926;BME280;39838;59.938;30.642;2023-03-14T00:06:07;98218.44;;;-2.63;82.54
48926;BME280;39838;59.938;30.642;2023-03-14T00:08:35;98202.34;;;-2.62;82.19
48926;BME280;39838;59.938;30.642;2023-03-14T00:11:06;98187.94;;;-2.63;82.09
48926;BME280;39838;59.938;30.642;2023-03-14T00:13:34;98188.88;;;-2.57;82.29
48926;BME280;39838;59.938;30.642;2023-03-14T00:16:04;98182.97;;;-2.54;81.83
48926;BME280;39838;59.938;30.642;2023-03-14T00:18:31;98178.81;;;-2.49;81.93
48926;BME280;39838;59.938;30.642;2023-03-14T00:20:59;98153.38;;;-2.51;82.04
48926;BME280;39838;59.938;30.642;2023-03-14T00:23:27;98157.66;;;-2.45;82.33
48926;BME280;39838;59.938;30.642;2023-03-14T00:25:58;98149.16;;;-2.47;82.25
48926;BME280;39838;59.938;30.642;2023-03-14T00:28:25;98143.25;;;-2.44;82.39
48926;BME280;39838;59.938;30.642;2023-03-14T00:30:53;98127.19;;;-2.43;82.10
48926;BME280;39838;59.938;30.642;2023-03-14T00:33:22;98110.28;;;-2.40;82.24
48926;BME280;39838;59.938;30.642;2023-03-14T00:35:54;98121.28;;;-2.39;82.12
48926;BME280;39838;59.938;30.642;2023-03-14T00:38:21;98100.19;;;-2.34;82.33
48926;BME280;39838;59.938;30.642;2023-03-14T00:40:49;98102.72;;;-2.34;82.04
48926;BME280;39838;59.938;30.642;2023-03-14T00:43:17;98081.53;;;-2.33;82.34
48926;BME280;39838;59.938;30.642;2023-03-14T00:45:44;98079.06;;;-2.30;82.27
48926;BME280;39838;59.938;30.642;2023-03-14T00:48:11;98061.25;;;-2.30;82.58
48926;BME280;39838;59.938;30.642;2023-03-14T00:50:40;98036.69;;;-2.26;82.59
48926;BME280;39838;59.938;30.642;2023-03-14T00:53:07;98049.41;;;-2.25;82.84
48926;BME280;39838;59.938;30.642;2023-03-14T00:55:36;98033.31;;;-2.24;82.77
48926;BME280;39838;59.938;30.642;2023-03-14T00:58:04;98046.03;;;-2.25;82.87
48926;BME280;39838;59.938;30.642;2023-03-14T01:00:31;98033.31;;;-2.24;82.93
48926;BME280;39838;59.938;30.642;2023-03-14T01:02:58;98029.97;;;-2.23;82.97
48926;BME280;39838;59.938;30.642;2023-03-14T01:05:25;98004.53;;;-2.20;82.81
48926;BME280;39838;59.938;30.642;2023-03-14T01:07:54;98005.44;;;-2.14;83.14
48926;BME280;39838;59.938;30.642;2023-03-14T01:10:21;98008.00;;;-2.13;83.18
48926;BME280;39838;59.938;30.642;2023-03-14T01:12:48;97996.97;;;-2.15;83.11
48926;BME280;39838;59.938;30.642;2023-03-14T01:15:16;97992.69;;;-2.17;83.31
48926;BME280;39838;59.938;30.642;2023-03-14T01:17:43;97976.63;;;-2.13;83.46
48926;BME280;39838;59.938;30.642;2023-03-14T01:20:12;97952.75;;;-2.26;83.64
48926;BME280;39838;59.938;30.642;2023-03-14T01:22:40;97953.75;;;-2.10;83.55
48926;BME280;39838;59.938;30.642;2023-03-14T01:25:12;97943.59;;;-2.09;83.45
48926;BME280;39838;59.938;30.642;2023-03-14T01:27:40;97943.53;;;-2.15;83.54
48926;BME280;39838;59.938;30.642;2023-03-14T01:30:09;97955.50;;;-2.06;83.83
48926;BME280;39838;59.938;30.642;2023-03-14T01:32:36;97941.09;;;-2.04;83.81
48926;BME280;39838;59.938;30.642;2023-03-14T01:35:04;97913.06;;;-2.07;83.80
48926;BME280;39838;59.938;30.642;2023-03-14T01:37:31;97912.28;;;-1.99;83.85
48926;BME280;39838;59.938;30.642;2023-03-14T01:39:58;97917.38;;;-2.00;83.68
48926;BME280;39838;59.938;30.642;2023-03-14T01:42:27;97901.31;;;-1.95;83.48
48926;BME280;39838;59.938;30.642;2023-03-14T01:44:56;97893.69;;;-1.93;83.55
48926;BME280;39838;59.938;30.642;2023-03-14T01:47:24;97902.19;;;-1.91;83.42
48926;BME280;39838;59.938;30.642;2023-03-14T01:49:53;97895.38;;;-1.90;83.89
48926;BME280;39838;59.938;30.642;2023-03-14T01:52:26;97897.97;;;-1.87;83.98
48926;BME280;39838;59.938;30.642;2023-03-14T01:54:57;97872.53;;;-1.89;83.87
48926;BME280;39838;59.938;30.642;2023-03-14T01:57:30;97867.44;;;-1.86;83.68
48926;BME280;39838;59.938;30.642;2023-03-14T02:00:03;97864.91;;;-1.86;83.82
48926;BME280;39838;59.938;30.642;2023-03-14T02:02:37;97851.38;;;-1.80;83.77
48926;BME280;39838;59.938;30.642;2023-03-14T02:05:06;97853.94;;;-1.76;83.61
48926;BME280;39838;59.938;30.642;2023-03-14T02:07:38;97850.56;;;-1.73;83.51
48926;BME280;39838;59.938;30.642;2023-03-14T02:10:09;97834.47;;;-1.69;83.60
48926;BME280;39838;59.938;30.642;2023-03-14T02:12:38;97835.34;;;-1.67;83.87
48926;BME280;39838;59.938;30.642;2023-03-14T02:15:07;97835.34;;;-1.66;83.70
48926;BME280;39838;59.938;30.642;2023-03-14T02:17:35;97829.41;;;-1.65;83.73
48926;BME280;39838;59.938;30.642;2023-03-14T02:20:22;97826.84;;;-1.65;83.66
48926;BME280;39838;59.938;30.642;2023-03-14T02:22:52;97817.53;;;-1.59;83.79
48926;BME280;39838;59.938;30.642;2023-03-14T02:25:24;97807.38;;;-1.59;84.00
48926;BME280;39838;59.938;30.642;2023-03-14T02:27:58;97812.50;;;-1.53;83.92
48926;BME280;39838;59.938;30.642;2023-03-14T02:30:27;97797.22;;;-1.50;84.47
48926;BME280;39838;59.938;30.642;2023-03-14T02:32:57;97798.91;;;-1.49;84.50
48926;BME280;39838;59.938;30.642;2023-03-14T02:35:28;97793.00;;;-1.45;84.62
48926;BME280;39838;59.938;30.642;2023-03-14T02:38:02;97779.44;;;-1.41;84.51
48926;BME280;39838;59.938;30.642;2023-03-14T02:40:31;97787.91;;;-1.45;84.63
48926;BME280;39838;59.938;30.642;2023-03-14T02:43:00;97780.28;;;-1.42;84.60
48926;BME280;39838;59.938;30.642;2023-03-14T02:45:39;97771.81;;;-1.38;85.16
48926;BME280;39838;59.938;30.642;2023-03-14T02:48:11;97776.91;;;-1.38;85.29
48926;BME280;39838;59.938;30.642;2023-03-14T02:50:41;97770.94;;;-1.37;85.69
48926;BME280;39838;59.938;30.642;2023-03-14T02:53:08;97761.63;;;-1.33;85.47
48926;BME280;39838;59.938;30.642;2023-03-14T02:55:35;97763.38;;;-1.28;85.65
48926;BME280;39838;59.938;30.642;2023-03-14T02:58:04;97754.88;;;-1.21;85.69
48926;BME280;39838;59.938;30.642;2023-03-14T03:00:31;97757.47;;;-1.15;86.17
48926;BME280;39838;59.938;30.642;2023-03-14T03:02:58;97736.19;;;-1.17;86.47
48926;BME280;39838;59.938;30.642;2023-03-14T03:05:26;97748.09;;;-1.16;86.21
48926;BME280;39838;59.938;30.642;2023-03-14T03:07:53;97754.06;;;-1.12;86.44
48926;BME280;39838;59.938;30.642;2023-03-14T03:10:22;97764.25;;;-1.09;86.75
48926;BME280;39838;59.938;30.642;2023-03-14T03:12:50;97755.75;;;-1.03;86.93
48926;BME280;39838;59.938;30.642;2023-03-14T03:15:19;97743.03;;;-1.03;87.10
48926;BME280;39838;59.938;30.642;2023-03-14T03:17:46;97741.31;;;-1.03;87.02
48926;BME280;39838;59.938;30.642;2023-03-14T03:20:13;97711.59;;;-0.96;87.67
48926;BME280;39838;59.938;30.642;2023-03-14T03:22:40;97713.31;;;-0.97;87.41
48926;BME280;39838;59.938;30.642;2023-03-14T03:25:08;97722.69;;;-0.94;87.68
48926;BME280;39838;59.938;30.642;2023-03-14T03:27:37;97708.22;;;-0.94;87.97
48926;BME280;39838;59.938;30.642;2023-03-14T03:30:06;97703.97;;;-0.90;88.36
48926;BME280;39838;59.938;30.642;2023-03-14T03:32:35;97709.06;;;-0.89;88.18
48926;BME280;39838;59.938;30.642;2023-03-14T03:35:03;97700.56;;;-0.85;88.32
48926;BME280;39838;59.938;30.642;2023-03-14T03:37:31;97695.47;;;-0.77;89.09
48926;BME280;39838;59.938;30.642;2023-03-14T03:39:58;97689.53;;;-0.77;89.08
48926;BME280;39838;59.938;30.642;2023-03-14T03:42:26;97685.28;;;-0.77;88.99
48926;BME280;39838;59.938;30.642;2023-03-14T03:44:53;97687.84;;;-0.71;89.12
48926;BME280;39838;59.938;30.642;2023-03-14T03:47:21;97688.66;;;-0.69;89.45
48926;BME280;39838;59.938;30.642;2023-03-14T03:49:49;97678.50;;;-0.66;89.78
48926;BME280;39838;59.938;30.642;2023-03-14T03:52:16;97681.88;;;-0.64;89.84
48926;BME280;39838;59.938;30.642;2023-03-14T03:54:44;97680.19;;;-0.59;89.79
48926;BME280;39838;59.938;30.642;2023-03-14T03:57:11;97680.19;;;-0.54;89.89
48926;BME280;39838;59.938;30.642;2023-03-14T03:59:38;97685.28;;;-0.51;89.50
48926;BME280;39838;59.938;30.642;2023-03-14T04:02:06;97675.06;;;-0.49;89.98
48926;BME280;39838;59.938;30.642;2023-03-14T04:04:33;97672.50;;;-0.43;90.31
48926;BME280;39838;59.938;30.642;2023-03-14T04:07:02;97672.50;;;-0.42;90.23
48926;BME280;39838;59.938;30.642;2023-03-14T04:09:29;97661.47;;;-0.39;90.28
48926;BME280;39838;59.938;30.642;2023-03-14T04:11:56;97651.25;;;-0.39;90.56
48926;BME280;39838;59.938;30.642;2023-03-14T04:14:23;97644.44;;;-0.37;90.29
48926;BME280;39838;59.938;30.642;2023-03-14T04:16:50;97653.78;;;-0.30;90.85
48926;BME280;39838;59.938;30.642;2023-03-14T04:19:18;97658.88;;;-0.30;90.51
48926;BME280;39838;59.938;30.642;2023-03-14T04:21:45;97669.94;;;-0.25;90.47
48926;BME280;39838;59.938;30.642;2023-03-14T04:24:14;97626.50;;;-0.16;90.36
48926;BME280;39838;59.938;30.642;2023-03-14T04:26:41;97657.16;;;-0.13;90.42
48926;BME280;39838;59.938;30.642;2023-03-14T04:29:08;97680.97;;;-0.11;90.33
48926;BME280;39838;59.938;30.642;2023-03-14T04:31:35;97661.34;;;-0.03;90.92
48926;BME280;39838;59.938;30.642;2023-03-14T04:34:02;97643.47;;;0.02;90.44
48926;BME280;39838;59.938;30.642;2023-03-14T04:36:34;97607.00;;;-0.20;90.89
48926;BME280;39838;59.938;30.642;2023-03-14T04:39:01;97655.38;;;0.09;90.98
48926;BME280;39838;59.938;30.642;2023-03-14T04:41:31;97640.88;;;0.14;91.04
48926;BME280;39838;59.938;30.642;2023-03-14T04:43:58;97629.78;;;0.20;90.98
48926;BME280;39838;59.938;30.642;2023-03-14T04:46:25;97631.50;;;0.21;91.58
48926;BME280;39838;59.938;30.642;2023-03-14T04:48:53;97645.94;;;0.25;92.12
48926;BME280;39838;59.938;30.642;2023-03-14T04:51:21;97643.38;;;0.30;91.24
48926;BME280;39838;59.938;30.642;2023-03-14T04:53:48;97647.59;;;0.32;91.75
48926;BME280;39838;59.938;30.642;2023-03-14T04:56:16;97628.84;;;0.39;91.44
48926;BME280;39838;59.938;30.642;2023-03-14T04:58:44;97640.75;;;0.43;92.08
48926;BME280;39838;59.938;30.642;2023-03-14T05:01:11;97624.53;;;0.47;92.00
48926;BME280;39838;59.938;30.642;2023-03-14T05:03:38;97641.53;;;0.53;91.80
48926;BME280;39838;59.938;30.642;2023-03-14T05:06:06;97633.88;;;0.54;91.89
48926;BME280;39838;59.938;30.642;2023-03-14T05:08:33;97632.97;;;0.62;92.56
48926;BME280;39838;59.938;30.642;2023-03-14T05:11:00;97626.13;;;0.67;92.15
48926;BME280;39838;59.938;30.642;2023-03-14T05:13:28;97626.06;;;0.73;91.89
48926;BME280;39838;59.938;30.642;2023-03-14T05:16:05;97632.88;;;0.77;92.22
48926;BME280;39838;59.938;30.642;2023-03-14T05:18:32;97634.53;;;0.82;92.06
48926;BME280;39838;59.938;30.642;2023-03-14T05:20:59;97625.13;;;0.89;92.11
48926;BME280;39838;59.938;30.642;2023-03-14T05:23:27;97637.88;;;0.95;92.43
48926;BME280;39838;59.938;30.642;2023-03-14T05:25:54;97628.44;;;1.00;92.27
48926;BME280;39838;59.938;30.642;2023-03-14T05:28:22;97635.19;;;1.07;92.64
48926;BME280;39838;59.938;30.642;2023-03-14T05:30:49;97617.28;;;1.11;92.29
48926;BME280;39838;59.938;30.642;2023-03-14T05:33:17;97627.47;;;1.14;92.40
48926;BME280;39838;59.938;30.642;2023-03-14T05:35:44;97641.91;;;1.21;92.71
48926;BME280;39838;59.938;30.642;2023-03-14T05:38:12;97623.13;;;1.25;92.78
48926;BME280;39838;59.938;30.642;2023-03-14T05:40:39;97631.63;;;1.30;92.59
48926;BME280;39838;59.938;30.642;2023-03-14T05:43:06;97623.81;;;1.42;92.22
48926;BME280;39838;59.938;30.642;2023-03-14T05:45:34;97620.38;;;1.46;92.64
48926;BME280;39838;59.938;30.642;2023-03-14T05:48:01;97615.19;;;1.52;92.30
48926;BME280;39838;59.938;30.642;2023-03-14T05:50:30;97621.91;;;1.62;92.48
48926;BME280;39838;59.938;30.642;2023-03-14T05:52:58;97610.75;;;1.71;92.54
48926;BME280;39838;59.938;30.642;2023-03-14T05:55:25;97612.41;;;1.77;92.17
48926;BME280;39838;59.938;30.642;2023-03-14T05:57:53;97616.59;;;1.81;92.28
48926;BME280;39838;59.938;30.642;2023-03-14T06:00:21;97611.44;;;1.85;92.21
48926;BME280;39838;59.938;30.642;2023-03-14T06:02:48;97621.66;;;1.87;92.51
48926;BME280;39838;59.938;30.642;2023-03-14T06:05:15;97611.31;;;1.95;92.15
48926;BME280;39838;59.938;30.642;2023-03-14T06:07:44;97603.59;;;1.99;92.04
48926;BME280;39838;59.938;30.642;2023-03-14T06:10:11;97611.22;;;2.02;92.38
48926;BME280;39838;59.938;30.642;2023-03-14T06:12:38;97619.72;;;2.07;92.40
48926;BME280;39838;59.938;30.642;2023-03-14T06:15:06;97605.97;;;2.14;92.20
48926;BME280;39838;59.938;30.642;2023-03-14T06:17:34;97616.97;;;2.21;92.31
48926;BME280;39838;59.938;30.642;2023-03-14T06:20:01;97618.59;;;2.28;92.18
48926;BME280;39838;59.938;30.642;2023-03-14T06:22:28;97597.16;;;2.34;91.97
48926;BME280;39838;59.938;30.642;2023-03-14T06:24:57;97601.34;;;2.41;92.26
48926;BME280;39838;59.938;30.642;2023-03-14T06:27:24;97617.47;;;2.47;92.40
48926;BME280;39838;59.938;30.642;2023-03-14T06:29:51;97614.81;;;2.55;92.06
48926;BME280;39838;59.938;30.642;2023-03-14T06:32:18;97606.16;;;2.62;92.27
48926;BME280;39838;59.938;30.642;2023-03-14T06:34:46;97607.81;;;2.66;92.07
48926;BME280;39838;59.938;30.642;2023-03-14T06:37:13;97602.59;;;2.74;92.05
48926;BME280;39838;59.938;30.642;2023-03-14T06:39:40;97602.50;;;2.80;92.50
48926;BME280;39838;59.938;30.642;2023-03-14T06:42:10;97585.31;;;2.84;92.82
48926;BME280;39838;59.938;30.642;2023-03-14T06:44:38;97598.94;;;2.89;92.51
48926;BME280;39838;59.938;30.642;2023-03-14T06:47:05;97608.25;;;2.94;92.80
48926;BME280;39838;59.938;30.642;2023-03-14T06:49:32;97597.84;;;3.05;92.82
48926;BME280;39838;59.938;30.642;2023-03-14T06:51:59;97600.19;;;3.17;93.04
48926;BME280;39838;59.938;30.642;2023-03-14T06:54:26;97599.16;;;3.27;93.11
48926;BME280;39838;59.938;30.642;2023-03-14T06:56:53;97607.44;;;3.43;92.83
48926;BME280;39838;59.938;30.642;2023-03-14T06:59:22;97578.34;;;3.43;92.16
48926;BME280;39838;59.938;30.642;2023-03-14T07:01:49;97616.91;;;3.41;92.62
48926;BME280;39838;59.938;30.642;2023-03-14T07:04:17;97627.13;;;3.43;92.20
48926;BME280;39838;59.938;30.642;2023-03-14T07:06:44;97639.06;;;3.44;92.36
48926;BME280;39838;59.938;30.642;2023-03-14T07:09:12;97637.22;;;3.53;92.00
48926;BME280;39838;59.938;30.642;2023-03-14T07:11:39;97623.47;;;3.56;92.18
48926;BME280;39838;59.938;30.642;2023-03-14T07:14:06;97631.16;;;3.56;91.59
48926;BME280;39838;59.938;30.642;2023-03-14T07:16:35;97633.72;;;3.59;91.97
48926;BME280;39838;59.938;30.642;2023-03-14T07:19:02;97627.66;;;3.62;91.67
48926;BME280;39838;59.938;30.642;2023-03-14T07:21:30;97635.31;;;3.63;91.80
48926;BME280;39838;59.938;30.642;2023-03-14T07:23:58;97637.78;;;3.69;91.77
48926;BME280;39838;59.938;30.642;2023-03-14T07:26:25;97654.91;;;3.69;91.63
48926;BME280;39838;59.938;30.642;2023-03-14T07:28:52;97644.56;;;3.72;91.79
48926;BME280;39838;59.938;30.642;2023-03-14T07:31:19;97660.81;;;3.72;91.47
48926;BME280;39838;59.938;30.642;2023-03-14T07:33:48;97653.13;;;3.74;91.36
48926;BME280;39838;59.938;30.642;2023-03-14T07:36:15;97661.75;;;3.70;92.03
48926;BME280;39838;59.938;30.642;2023-03-14T07:38:43;97681.38;;;3.72;92.06
48926;BME280;39838;59.938;30.642;2023-03-14T07:41:10;97665.97;;;3.74;91.60
48926;BME280;39838;59.938;30.642;2023-03-14T07:43:37;97652.38;;;3.67;92.33
48926;BME280;39838;59.938;30.642;2023-03-14T07:46:04;97660.78;;;3.75;92.01
48926;BME280;39838;59.938;30.642;2023-03-14T07:48:32;97663.34;;;3.75;92.54
48926;BME280;39838;59.938;30.642;2023-03-14T07:51:00;97670.88;;;3.84;92.48
48926;BME280;39838;59.938;30.642;2023-03-14T07:53:27;97675.13;;;3.87;92.47
48926;BME280;39838;59.938;30.642;2023-03-14T07:55:54;97672.47;;;3.92;92.57
48926;BME280;39838;59.938;30.642;2023-03-14T07:58:22;97669.84;;;3.95;92.10
48926;BME280;39838;59.938;30.642;2023-03-14T08:00:49;97668.06;;;3.98;92.57
48926;BME280;39838;59.938;30.642;2023-03-14T08:03:17;97649.16;;;4.02;92.35
48926;BME280;39838;59.938;30.642;2023-03-14T08:05:47;97660.16;;;4.09;92.70
48926;BME280;39838;59.938;30.642;2023-03-14T08:08:15;97688.38;;;4.10;92.59
48926;BME280;39838;59.938;30.642;2023-03-14T08:10:42;97683.97;;;4.17;91.99
48926;BME280;39838;59.938;30.642;2023-03-14T08:13:10;97675.34;;;4.20;92.49
48926;BME280;39838;59.938;30.642;2023-03-14T08:15:37;97681.19;;;4.29;92.27
48926;BME280;39838;59.938;30.642;2023-03-14T08:18:05;97675.91;;;4.35;92.31
48926;BME280;39838;59.938;30.642;2023-03-14T08:20:32;97682.63;;;4.43;91.62
48926;BME280;39838;59.938;30.642;2023-03-14T08:23:01;97662.03;;;4.44;92.21
48926;BME280;39838;59.938;30.642;2023-03-14T08:25:29;97679.06;;;4.50;91.65
48926;BME280;39838;59.938;30.642;2023-03-14T08:27:57;97695.16;;;4.58;91.18
48926;BME280;39838;59.938;30.642;2023-03-14T08:30:24;97685.50;;;4.69;91.28
48926;BME280;39838;59.938;30.642;2023-03-14T08:32:51;97676.75;;;4.78;91.25
48926;BME280;39838;59.938;30.642;2023-03-14T08:35:19;97674.97;;;4.80;91.22
48926;BME280;39838;59.938;30.642;2023-03-14T08:37:46;97692.94;;;4.83;91.33
48926;BME280;39838;59.938;30.642;2023-03-14T08:40:13;97675.69;;;4.88;90.62
48926;BME280;39838;59.938;30.642;2023-03-14T08:42:44;97679.00;;;4.91;91.14
48926;BME280;39838;59.938;30.642;2023-03-14T08:45:13;97627.13;;;4.73;91.00
48926;BME280;39838;59.938;30.642;2023-03-14T08:47:41;97689.75;;;5.10;90.82
48926;BME280;39838;59.938;30.642;2023-03-14T08:50:10;97692.06;;;5.21;91.00
48926;BME280;39838;59.938;30.642;2023-03-14T08:52:38;97694.34;;;5.33;90.25
48926;BME280;39838;59.938;30.642;2023-03-14T08:55:07;97693.16;;;5.46;90.35
48926;BME280;39838;59.938;30.642;2023-03-14T08:57:34;97696.50;;;5.52;89.64
48926;BME280;39838;59.938;30.642;2023-03-14T09:00:04;97703.50;;;5.45;89.39
48926;BME280;39838;59.938;30.642;2023-03-14T09:02:36;97704.22;;;5.52;89.88
48926;BME280;39838;59.938;30.642;2023-03-14T09:05:03;97701.50;;;5.58;89.43
48926;BME280;39838;59.938;30.642;2023-03-14T09:07:31;97702.28;;;5.60;89.62
48926;BME280;39838;59.938;30.642;2023-03-14T09:09:58;97696.91;;;5.69;89.43
48926;BME280;39838;59.938;30.642;2023-03-14T09:12:25;97710.25;;;5.85;89.88
48926;BME280;39838;59.938;30.642;2023-03-14T09:14:52;97727.16;;;5.98;89.21
48926;BME280;39838;59.938;30.642;2023-03-14T09:17:21;97733.19;;;5.97;88.73
48926;BME280;39838;59.938;30.642;2023-03-14T09:19:48;97748.66;;;5.95;88.32
48926;BME280;39838;59.938;30.642;2023-03-14T09:22:15;97742.47;;;6.02;88.32
48926;BME280;39838;59.938;30.642;2023-03-14T09:24:42;97758.66;;;6.08;87.95
48926;BME280;39838;59.938;30.642;2023-03-14T09:27:09;97733.63;;;6.13;87.68
48926;BME280;39838;59.938;30.642;2023-03-14T09:29:36;97738.94;;;6.07;87.59
48926;BME280;39838;59.938;30.642;2023-03-14T09:32:03;97759.59;;;6.05;87.37
48926;BME280;39838;59.938;30.642;2023-03-14T09:34:32;97751.75;;;6.10;87.85
48926;BME280;39838;59.938;30.642;2023-03-14T09:37:00;97751.50;;;6.19;87.24
48926;BME280;39838;59.938;30.642;2023-03-14T09:39:27;97752.94;;;6.29;87.08
48926;BME280;39838;59.938;30.642;2023-03-14T09:41:56;97752.94;;;6.29;86.80
48926;BME280;39838;59.938;30.642;2023-03-14T09:44:26;97737.84;;;6.17;86.59
48926;BME280;39838;59.938;30.642;2023-03-14T09:46:57;97771.03;;;6.27;86.76
48926;BME280;39838;59.938;30.642;2023-03-14T09:49:27;97788.16;;;6.32;86.96
48926;BME280;39838;59.938;30.642;2023-03-14T09:52:00;97788.19;;;6.30;86.72
48926;BME280;39838;59.938;30.642;2023-03-14T09:54:31;97781.97;;;6.37;85.91
48926;BME280;39838;59.938;30.642;2023-03-14T09:57:02;97772.25;;;6.47;86.08
48926;BME280;39838;59.938;30.642;2023-03-14T09:59:29;97777.84;;;6.63;85.87
48926;BME280;39838;59.938;30.642;2023-03-14T10:01:58;97780.13;;;6.73;85.49
48926;BME280;39838;59.938;30.642;2023-03-14T10:04:28;97785.19;;;6.78;85.08
48926;BME280;39838;59.938;30.642;2023-03-14T10:06:57;97798.78;;;6.83;85.20
48926;BME280;39838;59.938;30.642;2023-03-14T10:09:24;97803.66;;;6.94;84.69
48926;BME280;39838;59.938;30.642;2023-03-14T10:11:54;97764.53;;;6.78;84.45
48926;BME280;39838;59.938;30.642;2023-03-14T10:14:44;97811.16;;;7.01;83.67
48926;BME280;39838;59.938;30.642;2023-03-14T10:17:13;97808.63;;;7.00;83.78
48926;BME280;39838;59.938;30.642;2023-03-14T10:19:51;97793.06;;;7.03;83.56
48926;BME280;39838;59.938;30.642;2023-03-14T10:22:21;97804.66;;;7.18;83.18
48926;BME280;39838;59.938;30.642;2023-03-14T10:24:52;97799.25;;;7.27;83.30
48926;BME280;39838;59.938;30.642;2023-03-14T10:27:21;97794.69;;;7.35;83.14
48926;BME280;39838;59.938;30.642;2023-03-14T10:29:53;97782.31;;;7.46;82.72
48926;BME280;39838;59.938;30.642;2023-03-14T10:32:23;97796.13;;;7.72;81.48
48926;BME280;39838;59.938;30.642;2023-03-14T10:35:06;97793.66;;;7.69;80.98
48926;BME280;39838;59.938;30.642;2023-03-14T10:37:36;97807.31;;;7.72;80.96
48926;BME280;39838;59.938;30.642;2023-03-14T10:40:14;97804.66;;;7.75;80.61
48926;BME280;39838;59.938;30.642;2023-03-14T10:42:42;97814.22;;;7.72;80.69
48926;BME280;39838;59.938;30.642;2023-03-14T10:45:28;97805.78;;;7.66;80.47
48926;BME280;39838;59.938;30.642;2023-03-14T10:47:59;97819.31;;;7.75;80.69
48926;BME280;39838;59.938;30.642;2023-03-14T10:50:28;97807.28;;;7.74;80.39
48926;BME280;39838;59.938;30.642;2023-03-14T10:52:57;97792.88;;;7.66;80.28
48926;BME280;39838;59.938;30.642;2023-03-14T10:55:40;97813.44;;;7.70;80.39
48926;BME280;39838;59.938;30.642;2023-03-14T10:58:18;97817.81;;;7.68;79.66
48926;BME280;39838;59.938;30.642;2023-03-14T11:00:52;97807.66;;;7.61;79.98
48926;BME280;39838;59.938;30.642;2023-03-14T11:03:21;97823.25;;;7.58;80.15
48926;BME280;39838;59.938;30.642;2023-03-14T11:05:54;97804.28;;;7.59;79.78
48926;BME280;39838;59.938;30.642;2023-03-14T11:08:29;97819.81;;;7.59;80.09
48926;BME280;39838;59.938;30.642;2023-03-14T11:11:09;97817.72;;;7.71;79.57
48926;BME280;39838;59.938;30.642;2023-03-14T11:13:41;97818.31;;;7.79;79.37
48926;BME280;39838;59.938;30.642;2023-03-14T11:16:19;97829.56;;;7.78;79.25
48926;BME280;39838;59.938;30.642;2023-03-14T11:19:10;97819.03;;;7.84;79.01
48926;BME280;39838;59.938;30.642;2023-03-14T11:21:45;97803.50;;;7.84;79.08
48926;BME280;39838;59.938;30.642;2023-03-14T11:24:28;97818.94;;;7.87;78.91
48926;BME280;39838;59.938;30.642;2023-03-14T11:27:06;97820.50;;;7.91;78.36
48926;BME280;39838;59.938;30.642;2023-03-14T11:29:39;97839.44;;;7.93;78.53
48926;BME280;39838;59.938;30.642;2023-03-14T11:32:12;97830.19;;;7.86;78.41
48926;BME280;39838;59.938;30.642;2023-03-14T11:34:46;97838.91;;;7.82;78.63
48926;BME280;39838;59.938;30.642;2023-03-14T11:37:19;97850.53;;;7.69;79.21
48926;BME280;39838;59.938;30.642;2023-03-14T11:39:56;97852.56;;;7.57;78.90
48926;BME280;39838;59.938;30.642;2023-03-14T11:42:26;97851.06;;;7.50;79.04
48926;BME280;39838;59.938;30.642;2023-03-14T11:45:02;97865.94;;;7.42;79.18
48926;BME280;39838;59.938;30.642;2023-03-14T11:47:36;97872.06;;;7.39;79.33
48926;BME280;39838;59.938;30.642;2023-03-14T11:50:08;97879.88;;;7.36;79.51
48926;BME280;39838;59.938;30.642;2023-03-14T11:52:41;97880.56;;;7.43;79.45
48926;BME280;39838;59.938;30.642;2023-03-14T11:55:17;97877.97;;;7.43;79.25
48926;BME280;39838;59.938;30.642;2023-03-14T11:57:47;97883.31;;;7.37;79.86
48926;BME280;39838;59.938;30.642;2023-03-14T12:00:17;97880.81;;;7.34;79.35
48926;BME280;39838;59.938;30.642;2023-03-14T12:02:50;97886.91;;;7.31;79.60
48926;BME280;39838;59.938;30.642;2023-03-14T12:05:46;97881.09;;;7.25;80.28
48926;BME280;39838;59.938;30.642;2023-03-14T12:08:46;97888.06;;;7.21;80.06
48926;BME280;39838;59.938;30.642;2023-03-14T12:11:30;97879.56;;;7.18;79.78
48926;BME280;39838;59.938;30.642;2023-03-14T12:14:00;97875.94;;;7.23;80.21
48926;BME280;39838;59.938;30.642;2023-03-14T12:16:33;97887.28;;;7.18;79.86
48926;BME280;39838;59.938;30.642;2023-03-14T12:19:28;97900.31;;;7.15;79.79
48926;BME280;39838;59.938;30.642;2023-03-14T12:21:59;97910.53;;;7.18;80.08
48926;BME280;39838;59.938;30.642;2023-03-14T12:24:30;97889.25;;;7.09;79.78
48926;BME280;39838;59.938;30.642;2023-03-14T12:27:01;97905.47;;;7.15;80.30
48926;BME280;39838;59.938;30.642;2023-03-14T12:29:29;97910.50;;;7.19;80.68
48926;BME280;39838;59.938;30.642;2023-03-14T12:32:07;97909.56;;;7.22;80.41
48926;BME280;39838;59.938;30.642;2023-03-14T12:34:39;97904.25;;;7.28;80.21
48926;BME280;39838;59.938;30.642;2023-03-14T12:37:28;97910.31;;;7.27;79.86
48926;BME280;39838;59.938;30.642;2023-03-14T12:40:14;97913.78;;;7.26;80.08
48926;BME280;39838;59.938;30.642;2023-03-14T12:42:51;97905.88;;;7.32;79.89
48926;BME280;39838;59.938;30.642;2023-03-14T12:45:24;97916.00;;;7.38;80.23
48926;BME280;39838;59.938;30.642;2023-03-14T12:48:00;97919.81;;;7.56;79.77
48926;BME280;39838;59.938;30.642;2023-03-14T12:50:35;97926.25;;;7.71;79.72
48926;BME280;39838;59.938;30.642;2023-03-14T12:56:26;97923.31;;;7.83;78.35
48926;BME280;39838;59.938;30.642;2023-03-14T12:59:14;97932.88;;;7.81;78.21
48926;BME280;39838;59.938;30.642;2023-03-14T13:01:53;97944.16;;;7.77;78.17
48926;BME280;39838;59.938;30.642;2023-03-14T13:04:27;97936.75;;;7.64;78.40
48926;BME280;39838;59.938;30.642;2023-03-14T13:06:56;97938.72;;;7.56;78.76
48926;BME280;39838;59.938;30.642;2023-03-14T13:10:02;97945.00;;;7.48;78.80
48926;BME280;39838;59.938;30.642;2023-03-14T13:12:38;97940.78;;;7.45;78.89
48926;BME280;39838;59.938;30.642;2023-03-14T13:15:20;97929.41;;;7.52;78.77